createdAt,value
2022-12-28T00:00:03.944Z,100262.88
2022-12-28T00:01:22.023Z,100254.97
2022-12-28T00:02:30.419Z,100263.88
2022-12-28T00:03:43.476Z,100263.88
2022-12-28T00:04:50.212Z,100262.09
2022-12-28T00:05:56.152Z,100255.09
2022-12-28T00:07:01.350Z,100256.06
2022-12-28T00:08:10.261Z,100257.81
2022-12-28T00:09:33.608Z,100254.44
2022-12-28T00:11:07.580Z,100255.66
2022-12-28T00:12:08.748Z,100256.38
2022-12-28T00:13:13.038Z,100251.97
2022-12-28T00:14:18.854Z,100250.25
2022-12-28T00:15:25.774Z,100254.66
2022-12-28T00:16:40.687Z,100251.03
2022-12-28T00:17:47.844Z,100248.47
2022-12-28T00:18:56.962Z,100249.38
2022-12-28T00:20:06.476Z,100250.50
2022-12-28T00:21:14.660Z,100252.22
2022-12-28T00:22:24.217Z,100246.88
2022-12-28T00:23:40.788Z,100247.75
2022-12-28T00:24:48.585Z,100250.69
2022-12-28T00:26:09.737Z,100247.84
2022-12-28T00:27:20.829Z,100248.78
2022-12-28T00:28:35.131Z,100245.97
2022-12-28T00:30:00.168Z,100249.50
2022-12-28T00:31:15.600Z,100257.41
2022-12-28T00:32:34.051Z,100253.94
2022-12-28T00:33:44.637Z,100253.13
2022-12-28T00:34:48.676Z,100255.66
2022-12-28T00:36:00.660Z,100252.22
2022-12-28T00:37:11.658Z,100248.72
2022-12-28T00:38:19.531Z,100251.59
2022-12-28T00:39:28.794Z,100242.59
2022-12-28T00:40:32.839Z,100250.38
2022-12-28T00:41:40.497Z,100250.34
2022-12-28T00:42:49.882Z,100248.59
2022-12-28T00:43:55.977Z,100250.38
2022-12-28T00:44:59.661Z,100253.06
2022-12-28T00:46:04.224Z,100257.41
2022-12-28T00:47:08.615Z,100253.00
2022-12-28T00:48:16.367Z,100253.88
2022-12-28T00:49:23.970Z,100253.88
2022-12-28T00:50:29.891Z,100259.13
2022-12-28T00:51:34.206Z,100256.47
2022-12-28T00:52:37.839Z,100257.34
2022-12-28T00:53:44.154Z,100260.78
2022-12-28T00:54:47.539Z,100261.75
2022-12-28T00:55:54.202Z,100259.06
2022-12-28T00:56:58.119Z,100263.41
2022-12-28T00:58:08.865Z,100267.75
2022-12-28T00:59:19.457Z,100256.47
2022-12-28T01:00:23.850Z,100262.59
2022-12-28T01:01:29.758Z,100260.03
2022-12-28T01:02:34.908Z,100257.41
2022-12-28T01:03:40.450Z,100261.75
2022-12-28T01:04:45.877Z,100257.34
2022-12-28T01:05:51.798Z,100259.91
2022-12-28T01:06:55.363Z,100266.03
2022-12-28T01:08:00.467Z,100272.28
2022-12-28T01:09:04.342Z,100267.00
2022-12-28T01:10:08.746Z,100268.75
2022-12-28T01:11:21.343Z,100257.34
2022-12-28T01:12:25.577Z,100266.16
2022-12-28T01:13:29.406Z,100265.31
2022-12-28T01:14:33.031Z,100258.25
2022-12-28T01:15:41.213Z,100259.13
2022-12-28T01:16:44.791Z,100267.94
2022-12-28T01:17:49.862Z,100264.41
2022-12-28T01:19:03.826Z,100263.56
2022-12-28T01:20:12.910Z,100261.88
2022-12-28T01:21:23.779Z,100272.47
2022-12-28T01:22:28.288Z,100260.66
2022-12-28T01:23:35.098Z,100264.06
2022-12-28T01:24:46.004Z,100265.06
2022-12-28T01:25:56.729Z,100269.44
2022-12-28T01:27:05.268Z,100265.13
2022-12-28T01:28:09.881Z,100262.44
2022-12-28T01:29:13.675Z,100266.75
2022-12-28T01:30:20.342Z,100267.78
2022-12-28T01:31:24.654Z,100261.66
2022-12-28T01:32:28.506Z,100260.75
2022-12-28T01:33:33.157Z,100259.09
2022-12-28T01:34:36.922Z,100265.06
2022-12-28T01:35:42.117Z,100259.75
2022-12-28T01:36:47.603Z,100256.16
2022-12-28T01:37:59.011Z,100257.06
2022-12-28T01:39:06.216Z,100257.00
2022-12-28T01:40:16.768Z,100259.63
2022-12-28T01:41:24.534Z,100255.22
2022-12-28T01:42:42.075Z,100246.59
2022-12-28T01:43:54.212Z,100246.59
2022-12-28T01:45:23.904Z,100250.09
2022-12-28T01:46:45.232Z,100243.91
2022-12-28T01:47:58.205Z,100247.38
2022-12-28T01:49:28.576Z,100243.81
2022-12-28T01:50:32.870Z,100248.31
2022-12-28T01:52:25.567Z,100241.38
2022-12-28T01:53:29.984Z,100239.75
2022-12-28T01:54:48.631Z,100243.19
2022-12-28T01:55:56.610Z,100240.53
2022-12-28T01:57:04.482Z,100235.38
2022-12-28T01:58:18.915Z,100232.75
2022-12-28T01:59:35.301Z,100237.03
2022-12-28T02:00:41.591Z,100236.19
2022-12-28T02:01:48.685Z,100231.69
2022-12-28T02:03:03.706Z,100230.19
2022-12-28T02:04:08.689Z,100223.88
2022-12-28T02:05:16.087Z,100229.06
2022-12-28T02:06:21.348Z,100229.88
2022-12-28T02:07:51.313Z,100228.03
2022-12-28T02:09:40.873Z,100224.53
2022-12-28T02:10:51.894Z,100216.66
2022-12-28T02:12:01.407Z,100216.75
2022-12-28T02:13:09.191Z,100223.75
2022-12-28T02:14:16.560Z,100212.34
2022-12-28T02:15:24.753Z,100224.66
2022-12-28T02:16:29.338Z,100220.31
2022-12-28T02:17:35.283Z,100227.34
2022-12-28T02:18:43.987Z,100216.91
2022-12-28T02:19:54.652Z,100215.25
2022-12-28T02:21:51.428Z,100212.59
2022-12-28T02:23:18.075Z,100210.94
2022-12-28T02:24:45.968Z,100215.44
2022-12-28T02:26:16.520Z,100212.91
2022-12-28T02:27:47.440Z,100212.06
2022-12-28T02:29:19.091Z,100222.72
2022-12-28T02:30:27.421Z,100218.41
2022-12-28T02:31:52.836Z,100216.66
2022-12-28T02:33:17.150Z,100223.88
2022-12-28T02:35:09.222Z,100231.81
2022-12-28T02:36:26.689Z,100225.72
2022-12-28T02:38:01.397Z,100220.63
2022-12-28T02:39:18.675Z,100221.56
2022-12-28T02:40:35.153Z,100215.44
2022-12-28T02:41:42.237Z,100220.69
2022-12-28T02:42:47.153Z,100213.72
2022-12-28T02:43:54.471Z,100213.72
2022-12-28T02:45:19.229Z,100215.50
2022-12-28T02:46:50.357Z,100209.44
2022-12-28T02:48:16.280Z,100216.47
2022-12-28T02:49:44.883Z,100208.69
2022-12-28T02:51:21.419Z,100205.28
2022-12-28T02:52:36.243Z,100202.69
2022-12-28T02:54:36.951Z,100199.38
2022-12-28T02:56:10.142Z,100205.56
2022-12-28T02:57:32.735Z,100203.84
2022-12-28T02:59:28.062Z,100202.19
2022-12-28T03:01:15.230Z,100198.72
2022-12-28T03:02:34.209Z,100190.03
2022-12-28T03:04:08.051Z,100180.53
2022-12-28T03:06:04.819Z,100184.03
2022-12-28T03:07:37.919Z,100182.41
2022-12-28T04:04:32.444Z,100165.88
2022-12-28T04:05:39.551Z,100158.00
2022-12-28T04:06:46.760Z,100156.22
2022-12-28T04:07:57.104Z,100157.03
2022-12-28T04:09:02.141Z,100152.75
2022-12-28T04:10:09.674Z,100152.69
2022-12-28T04:11:15.285Z,100155.25
2022-12-28T04:12:28.256Z,100147.38
2022-12-28T04:13:34.326Z,100159.66
2022-12-28T04:14:39.047Z,100156.16
2022-12-28T04:15:44.186Z,100148.28
2022-12-28T04:16:53.167Z,100157.03
2022-12-28T04:18:01.777Z,100155.25
2022-12-28T04:19:11.103Z,100141.25
2022-12-28T04:20:15.698Z,100146.50
2022-12-28T04:21:25.450Z,100156.09
2022-12-28T04:22:31.295Z,100153.53
2022-12-28T04:23:42.534Z,100145.59
2022-12-28T04:24:49.920Z,100146.47
2022-12-28T04:26:06.256Z,100141.25
2022-12-28T04:27:12.531Z,100138.69
2022-12-28T04:28:22.234Z,100138.69
2022-12-28T04:29:25.589Z,100133.50
2022-12-28T04:30:31.986Z,100134.41
2022-12-28T04:31:37.103Z,100137.94
2022-12-28T04:32:47.421Z,100147.47
2022-12-28T04:33:52.547Z,100142.22
2022-12-28T04:34:56.102Z,100137.03
2022-12-28T04:36:09.867Z,100135.31
2022-12-28T04:37:16.049Z,100130.97
2022-12-28T04:38:21.517Z,100137.94
2022-12-28T04:39:55.395Z,100127.44
2022-12-28T04:40:58.024Z,100125.72
2022-12-28T04:42:02.044Z,100117.84
2022-12-28T04:43:22.760Z,100125.72
2022-12-28T04:44:26.616Z,100120.47
2022-12-28T04:45:36.609Z,100124.81
2022-12-28T04:46:42.412Z,100123.09
2022-12-28T04:47:47.979Z,100128.34
2022-12-28T04:48:52.935Z,100119.66
2022-12-28T04:50:02.093Z,100131.88
2022-12-28T04:51:26.097Z,100130.16
2022-12-28T04:52:33.615Z,100133.75
2022-12-28T04:53:39.220Z,100134.66
2022-12-28T04:54:42.953Z,100126.72
2022-12-28T04:55:47.008Z,100129.34
2022-12-28T04:56:51.331Z,100122.38
2022-12-28T04:57:54.796Z,100117.13
2022-12-28T04:59:05.516Z,100107.50
2022-12-28T05:00:10.483Z,100104.94
2022-12-28T05:01:19.927Z,100102.28
2022-12-28T05:02:23.626Z,100097.94
2022-12-28T05:03:29.900Z,100098.00
2022-12-28T05:04:33.644Z,100093.59
2022-12-28T05:05:40.107Z,100104.16
2022-12-28T05:06:43.911Z,100103.31
2022-12-28T05:07:48.797Z,100106.78
2022-12-28T05:08:52.493Z,100109.47
2022-12-28T05:09:56.002Z,100104.22
2022-12-28T05:11:05.769Z,100099.13
2022-12-28T05:12:09.572Z,100099.06
2022-12-28T05:13:13.198Z,100109.59
2022-12-28T05:14:16.624Z,100105.25
2022-12-28T05:15:20.023Z,100113.13
2022-12-28T05:16:26.560Z,100105.28
2022-12-28T05:17:31.848Z,100106.16
2022-12-28T05:18:35.822Z,100098.28
2022-12-28T05:19:39.787Z,100107.94
2022-12-28T05:20:44.300Z,100098.28
2022-12-28T05:21:47.940Z,100090.47
2022-12-28T05:22:53.794Z,100096.56
2022-12-28T05:23:59.126Z,100091.38
2022-12-28T05:25:05.074Z,100092.28
2022-12-28T05:26:15.323Z,100094.91
2022-12-28T05:27:19.265Z,100101.91
2022-12-28T05:28:24.200Z,100101.91
2022-12-28T05:29:28.595Z,100107.16
2022-12-28T05:30:34.308Z,100103.63
2022-12-28T05:31:39.602Z,100108.88
2022-12-28T05:32:44.695Z,100112.44
2022-12-28T05:33:49.930Z,100104.59
2022-12-28T05:34:56.034Z,100106.31
2022-12-28T05:36:17.714Z,100105.47
2022-12-28T05:37:27.332Z,100107.22
2022-12-28T05:38:35.684Z,100109.84
2022-12-28T05:39:41.870Z,100100.25
2022-12-28T05:40:47.802Z,100102.88
2022-12-28T05:42:00.644Z,100105.53
2022-12-28T05:43:06.747Z,100099.41
2022-12-28T05:44:15.051Z,100095.97
2022-12-28T05:45:20.701Z,100098.66
2022-12-28T05:46:34.968Z,100103.03
2022-12-28T05:47:41.517Z,100092.59
2022-12-28T05:48:51.190Z,100091.78
2022-12-28T05:49:56.664Z,100097.94
2022-12-28T05:51:09.374Z,100097.13
2022-12-28T05:52:14.916Z,100096.22
2022-12-28T05:53:19.865Z,100103.25
2022-12-28T05:54:28.227Z,100103.25
2022-12-28T05:55:34.728Z,100100.69
2022-12-28T05:56:40.807Z,100098.97
2022-12-28T05:57:49.907Z,100099.81
2022-12-28T05:59:02.331Z,100097.25
2022-12-28T06:00:07.984Z,100092.03
2022-12-28T06:01:24.808Z,100091.19
2022-12-28T06:02:30.065Z,100092.97
2022-12-28T06:03:39.995Z,100072.94
2022-12-28T06:04:46.654Z,100082.50
2022-12-28T06:06:08.991Z,100084.34
2022-12-28T06:07:16.137Z,100083.53
2022-12-28T06:08:22.781Z,100080.06
2022-12-28T06:09:29.843Z,100077.44
2022-12-28T06:10:36.595Z,100080.09
2022-12-28T06:11:50.073Z,100085.44
2022-12-28T06:12:54.313Z,100088.03
2022-12-28T06:14:00.924Z,100074.09
2022-12-28T06:15:05.912Z,100077.59
2022-12-28T06:16:18.416Z,100077.59
2022-12-28T06:17:28.187Z,100072.38
2022-12-28T06:18:36.077Z,100078.47
2022-12-28T06:19:40.209Z,100075.88
2022-12-28T06:20:53.808Z,100070.66
2022-12-28T06:22:00.803Z,100078.50
2022-12-28T06:23:05.472Z,100082.03
2022-12-28T06:24:10.910Z,100077.69
2022-12-28T06:25:15.516Z,100078.53
2022-12-28T06:26:22.848Z,100078.53
2022-12-28T06:27:31.322Z,100082.13
2022-12-28T06:28:41.009Z,100070.78
2022-12-28T06:29:52.942Z,100077.78
2022-12-28T06:31:19.740Z,100075.09
2022-12-28T06:32:24.271Z,100073.44
2022-12-28T06:33:29.281Z,100070.78
2022-12-28T06:34:32.957Z,100070.78
2022-12-28T06:35:44.555Z,100071.66
2022-12-28T06:36:53.176Z,100077.84
2022-12-28T06:37:57.402Z,100063.81
2022-12-28T06:39:04.155Z,100069.19
2022-12-28T06:40:11.289Z,100067.44
2022-12-28T06:41:17.260Z,100068.28
2022-12-28T06:42:24.015Z,100063.91
2022-12-28T06:43:36.363Z,100060.41
2022-12-28T06:44:44.883Z,100054.25
2022-12-28T06:46:02.198Z,100055.16
2022-12-28T06:47:09.169Z,100065.63
2022-12-28T06:48:15.579Z,100062.13
2022-12-28T06:49:28.814Z,100055.97
2022-12-28T06:50:40.155Z,100057.69
2022-12-28T06:51:44.299Z,100061.16
2022-12-28T06:52:57.753Z,100059.41
2022-12-28T06:54:02.093Z,100058.56
2022-12-28T06:55:11.813Z,100062.09
2022-12-28T06:56:33.776Z,100055.03
2022-12-28T06:57:41.312Z,100050.56
2022-12-28T06:58:50.815Z,100047.91
2022-12-28T06:59:54.855Z,100050.53
2022-12-28T07:01:10.904Z,100042.59
2022-12-28T07:02:17.019Z,100046.78
2022-12-28T07:03:24.588Z,100037.13
2022-12-28T07:04:29.598Z,100040.56
2022-12-28T07:05:35.108Z,100042.22
2022-12-28T07:06:44.135Z,100045.69
2022-12-28T07:07:49.255Z,100035.22
2022-12-28T07:10:17.812Z,100035.09
2022-12-28T07:11:22.674Z,100034.16
2022-12-28T07:12:26.644Z,100030.63
2022-12-28T07:13:30.251Z,100033.22
2022-12-28T07:14:33.769Z,100021.00
2022-12-28T07:15:37.526Z,100031.56
2022-12-28T07:17:44.086Z,100028.88
2022-12-28T07:18:48.092Z,100032.38
2022-12-28T07:19:51.685Z,100023.63
2022-12-28T07:21:36.459Z,100016.38
2022-12-28T07:22:40.067Z,100013.72
2022-12-28T07:23:44.983Z,100016.22
2022-12-28T07:24:53.512Z,100015.19
2022-12-28T07:26:06.003Z,100011.66
2022-12-28T07:27:09.696Z,100008.13
2022-12-28T07:28:19.061Z,100014.25
2022-12-28T07:29:25.411Z,100012.44
2022-12-28T07:30:33.360Z,100015.03
2022-12-28T07:31:45.254Z,100008.88
2022-12-28T07:32:56.777Z,100007.09
2022-12-28T07:34:03.675Z,100005.34
2022-12-28T07:35:08.790Z,100000.03
2022-12-28T07:36:19.010Z,100000.91
2022-12-28T07:37:24.501Z,100010.47
2022-12-28T07:38:28.799Z,100002.59
2022-12-28T07:39:37.169Z,100004.25
2022-12-28T07:40:41.903Z,100002.47
2022-12-28T07:41:48.162Z,100000.69
2022-12-28T07:42:55.063Z,100012.84
2022-12-28T07:44:04.267Z,100008.34
2022-12-28T07:45:12.795Z,100005.66
2022-12-28T07:46:26.310Z,100007.31
2022-12-28T07:47:30.022Z,100005.50
2022-12-28T07:48:42.102Z,100003.66
2022-12-28T07:49:49.936Z,99994.81
2022-12-28T07:51:00.671Z,99994.81
2022-12-28T07:52:08.385Z,99997.25
2022-12-28T07:53:12.521Z,99993.69
2022-12-28T07:54:18.802Z,99991.84
2022-12-28T07:55:24.811Z,99991.00
2022-12-28T07:57:37.173Z,99989.78
2022-12-28T07:59:47.976Z,99992.34
2022-12-28T08:00:52.886Z,99991.44
2022-12-28T08:02:00.403Z,99993.94
2022-12-28T08:03:06.151Z,99987.63
2022-12-28T08:04:20.148Z,99993.63
2022-12-28T08:05:24.025Z,99989.22
2022-12-28T08:06:30.179Z,99987.38
2022-12-28T08:07:39.778Z,99987.25
2022-12-28T08:09:02.981Z,99996.00
2022-12-28T08:10:22.637Z,99992.94
2022-12-28T08:11:33.797Z,99989.34
2022-12-28T08:12:42.869Z,99992.66
2022-12-28T08:13:55.283Z,99984.78
2022-12-28T08:15:01.176Z,99985.63
2022-12-28T08:16:06.861Z,99985.34
2022-12-28T08:17:16.103Z,99993.91
2022-12-28T08:18:32.651Z,99986.22
2022-12-28T08:19:38.789Z,99987.06
2022-12-28T08:20:50.047Z,99986.94
2022-12-28T08:21:53.694Z,99978.78
2022-12-28T08:22:57.837Z,99987.34
2022-12-28T08:24:02.731Z,99982.66
2022-12-28T08:25:07.995Z,99989.66
2022-12-28T08:26:15.142Z,99982.56
2022-12-28T08:27:19.126Z,99985.78
2022-12-28T08:28:23.714Z,99976.81
2022-12-28T08:29:27.262Z,99989.00
2022-12-28T08:30:31.057Z,99978.25
2022-12-28T08:31:44.276Z,99982.59
2022-12-28T08:32:50.634Z,99986.03
2022-12-28T08:33:59.329Z,99975.31
2022-12-28T08:35:03.288Z,99981.44
2022-12-28T08:36:11.292Z,99977.56
2022-12-28T08:37:14.809Z,99983.59
2022-12-28T08:38:19.851Z,99982.50
2022-12-28T08:39:24.208Z,99979.75
2022-12-28T08:40:30.000Z,99972.63
2022-12-28T08:41:33.973Z,99976.88
2022-12-28T08:42:38.215Z,99974.47
2022-12-28T08:43:44.913Z,99975.31
2022-12-28T08:44:52.770Z,99974.31
2022-12-28T08:46:04.815Z,99981.81
2022-12-28T08:47:11.269Z,99981.59
2022-12-28T08:48:15.139Z,99984.06
2022-12-28T08:49:26.358Z,99981.22
2022-12-28T08:50:32.022Z,99990.69
2022-12-28T08:51:41.808Z,99984.63
2022-12-28T08:52:45.803Z,99980.75
2022-12-28T08:53:51.644Z,99984.09
2022-12-28T08:54:55.860Z,99984.81
2022-12-28T08:56:13.159Z,99988.06
2022-12-28T08:57:16.689Z,99989.78
2022-12-28T08:58:21.139Z,99994.03
2022-12-28T08:59:26.800Z,99991.25
2022-12-28T09:00:32.728Z,99992.97
2022-12-28T09:01:44.244Z,99992.00
2022-12-28T09:02:48.319Z,100002.34
2022-12-28T09:03:55.390Z,99989.06
2022-12-28T09:04:59.795Z,99991.75
2022-12-28T09:06:07.033Z,99983.53
2022-12-28T09:07:14.837Z,99987.94
2022-12-28T09:40:13.263Z,99959.25
2022-12-28T09:41:40.469Z,99958.28
2022-12-28T09:42:44.765Z,99953.69
2022-12-28T09:43:54.395Z,99952.56
2022-12-28T09:45:11.845Z,99952.19
2022-12-28T09:46:24.406Z,99951.97
2022-12-28T09:48:00.382Z,99959.69
2022-12-28T09:49:17.710Z,99955.25
2022-12-28T09:50:32.228Z,99948.91
2022-12-28T09:51:47.079Z,99952.31
2022-12-28T09:53:32.029Z,99947.69
2022-12-28T09:54:39.955Z,99947.44
2022-12-28T09:56:27.061Z,99938.81
2022-12-28T09:57:38.980Z,99940.31
2022-12-28T09:58:47.949Z,99934.94
2022-12-28T09:59:53.465Z,99938.53
2022-12-28T10:01:03.701Z,99938.44
2022-12-28T10:02:24.651Z,99938.25
2022-12-28T10:03:41.433Z,99928.44
2022-12-28T10:04:49.476Z,99933.56
2022-12-28T10:05:57.958Z,99928.44
2022-12-28T10:07:02.810Z,99923.91
2022-12-28T10:08:23.992Z,99925.06
2022-12-28T10:09:34.311Z,99916.28
2022-12-28T10:10:48.165Z,99908.22
2022-12-28T10:11:57.210Z,99912.56
2022-12-28T10:14:51.347Z,99908.81
2022-12-28T10:15:56.672Z,99910.91
2022-12-28T10:17:08.058Z,99904.75
2022-12-28T10:18:22.247Z,99904.06
2022-12-28T10:19:29.301Z,99912.69
2022-12-28T10:20:34.187Z,99907.50
2022-12-28T10:21:40.134Z,99916.91
2022-12-28T10:22:50.213Z,99907.50
2022-12-28T10:24:29.687Z,99911.91
2022-12-28T10:25:32.970Z,99912.94
2022-12-28T10:26:44.841Z,99909.34
2022-12-28T10:27:50.403Z,99912.66
2022-12-28T10:29:02.208Z,99909.16
2022-12-28T10:30:30.770Z,99906.25
2022-12-28T10:31:40.628Z,99908.81
2022-12-28T10:33:02.215Z,99904.34
2022-12-28T10:34:24.451Z,99902.75
2022-12-28T10:35:36.387Z,99902.13
2022-12-28T10:36:40.495Z,99910.38
2022-12-28T10:37:45.000Z,99905.13
2022-12-28T10:38:57.766Z,99901.50
2022-12-28T10:40:27.204Z,99901.56
2022-12-28T10:41:41.713Z,99903.66
2022-12-28T10:42:54.972Z,99893.88
2022-12-28T10:44:41.718Z,99896.66
2022-12-28T10:45:52.980Z,99887.81
2022-12-28T10:47:30.466Z,99882.66
2022-12-28T10:48:45.240Z,99890.94
2022-12-28T10:51:24.070Z,99881.03
2022-12-28T10:52:31.135Z,99888.38
2022-12-28T10:53:52.233Z,99884.59
2022-12-28T10:56:28.289Z,99876.44
2022-12-28T10:57:32.747Z,99881.66
2022-12-28T10:58:47.962Z,99869.22
2022-12-28T11:00:23.256Z,99875.81
2022-12-28T11:01:30.381Z,99865.44
2022-12-28T11:02:34.806Z,99863.50
2022-12-28T11:03:21.859Z,99882.66
2022-12-28T11:04:02.557Z,99866.94
2022-12-28T11:05:22.673Z,99858.84
2022-12-28T11:06:32.168Z,99857.91
2022-12-28T11:07:41.978Z,99843.94
2022-12-28T11:09:03.212Z,99839.50
2022-12-28T11:10:33.899Z,99834.19
2022-12-28T11:11:39.500Z,99838.47
2022-12-28T11:12:45.394Z,99836.00
2022-12-28T11:14:30.683Z,99827.59
2022-12-28T11:15:37.942Z,99823.84
2022-12-28T11:16:43.430Z,99817.13
2022-12-28T11:18:01.013Z,99817.69
2022-12-28T11:19:05.694Z,99814.84
2022-12-28T11:20:24.917Z,99811.56
2022-12-28T11:21:28.582Z,99819.34
2022-12-28T11:22:36.178Z,99813.44
2022-12-28T11:23:40.156Z,99818.94
2022-12-28T11:24:49.528Z,99818.06
2022-12-28T11:25:54.011Z,99808.22
2022-12-28T11:26:58.110Z,99819.66
2022-12-28T11:28:16.387Z,99815.31
2022-12-28T11:29:20.377Z,99811.81
2022-12-28T11:30:25.471Z,99810.94
2022-12-28T11:31:37.742Z,99811.72
2022-12-28T11:33:04.761Z,99808.88
2022-12-28T11:34:19.782Z,99806.13
2022-12-28T11:35:28.956Z,99795.78
2022-12-28T11:36:40.103Z,99791.59
2022-12-28T11:37:57.199Z,99794.22
2022-12-28T11:39:26.903Z,99781.00
2022-12-28T11:40:48.068Z,99797.22
2022-12-28T11:42:28.036Z,99781.69
2022-12-28T11:43:31.178Z,99774.94
2022-12-28T11:44:42.990Z,99781.63
2022-12-28T11:46:00.731Z,99770.91
2022-12-28T11:47:16.313Z,99773.78
2022-12-28T11:48:41.706Z,99770.34
2022-12-28T11:49:47.810Z,99772.69
2022-12-28T11:50:57.673Z,99776.34
2022-12-28T11:52:19.166Z,99769.81
2022-12-28T11:53:46.106Z,99769.03
2022-12-28T11:54:58.140Z,99766.31
2022-12-28T11:56:11.072Z,99766.78
2022-12-28T11:57:44.700Z,99764.91
2022-12-28T11:59:22.706Z,99756.41
2022-12-28T12:00:51.871Z,99754.63
2022-12-28T12:02:09.247Z,99754.59
2022-12-28T12:03:14.437Z,99752.78
2022-12-28T12:04:42.268Z,99744.06
2022-12-28T12:05:51.409Z,99746.56
2022-12-28T12:07:02.199Z,99752.63
2022-12-28T12:08:24.439Z,99753.25
2022-12-28T12:09:39.342Z,99752.44
2022-12-28T12:11:08.340Z,99756.03
2022-12-28T12:12:19.771Z,99746.19
2022-12-28T12:13:39.835Z,99741.53
2022-12-28T12:15:14.872Z,99740.50
2022-12-28T12:16:49.776Z,99743.13
2022-12-28T12:18:08.200Z,99738.78
2022-12-28T12:19:25.836Z,99741.34
2022-12-28T12:20:48.353Z,99737.38
2022-12-28T12:22:18.962Z,99738.31
2022-12-28T12:23:49.597Z,99727.50
2022-12-28T12:25:03.139Z,99727.91
2022-12-28T12:26:41.123Z,99720.75
2022-12-28T12:28:06.929Z,99719.03
2022-12-28T12:29:39.222Z,99722.44
2022-12-28T12:30:46.633Z,99722.53
2022-12-28T12:32:06.456Z,99720.66
2022-12-28T12:33:26.165Z,99720.50
2022-12-28T12:34:52.424Z,99707.81
2022-12-28T12:36:33.672Z,99715.34
2022-12-28T12:38:04.748Z,99710.91
2022-12-28T12:39:58.937Z,99702.88
2022-12-28T12:41:42.294Z,99697.88
2022-12-28T12:43:36.686Z,99691.66
2022-12-28T12:45:18.121Z,99694.38
2022-12-28T12:47:06.149Z,99691.47
2022-12-28T12:48:59.990Z,99688.72
2022-12-28T12:51:01.112Z,99684.31
2022-12-28T12:52:51.569Z,99679.03
2022-12-28T12:54:39.208Z,99677.81
2022-12-28T12:56:39.499Z,99675.78
2022-12-28T12:58:00.573Z,99673.88
2022-12-28T12:59:57.642Z,99672.53
2022-12-28T13:01:01.483Z,99669.72
2022-12-28T13:03:09.468Z,99663.22
2022-12-28T13:04:29.533Z,99660.41
2022-12-28T13:05:42.607Z,99659.56
2022-12-28T13:06:54.253Z,99658.69
2022-12-28T13:08:03.231Z,99649.19
2022-12-28T13:09:18.229Z,99664.19
2022-12-28T13:10:48.988Z,99655.44
2022-12-28T13:11:53.975Z,99657.16
2022-12-28T13:13:01.735Z,99658.00
2022-12-28T13:14:07.098Z,99659.97
2022-12-28T13:15:18.583Z,99653.75
2022-12-28T13:16:51.587Z,99658.38
2022-12-28T13:19:41.192Z,99643.75
2022-12-28T13:21:10.577Z,99657.50
2022-12-28T13:22:34.657Z,99652.22
2022-12-28T13:23:53.905Z,99662.72
2022-12-28T13:25:05.816Z,99658.94
2022-12-28T13:26:17.473Z,99656.56
2022-12-28T13:27:22.721Z,99654.34
2022-12-28T13:28:35.623Z,99660.59
2022-12-28T13:29:56.005Z,99654.59
2022-12-28T13:31:19.230Z,99656.56
2022-12-28T13:32:37.708Z,99651.44
2022-12-28T13:35:29.189Z,99653.56
2022-12-28T13:36:37.203Z,99647.94
2022-12-28T13:37:59.045Z,99649.13
2022-12-28T13:39:13.985Z,99633.50
2022-12-28T13:40:21.360Z,99633.41
2022-12-28T13:41:27.659Z,99631.00
2022-12-28T13:43:01.414Z,99630.06
2022-12-28T13:44:43.510Z,99632.06
2022-12-28T13:46:09.657Z,99621.47
2022-12-28T13:47:35.306Z,99625.06
2022-12-28T13:48:50.337Z,99621.03
2022-12-28T13:50:16.207Z,99620.00
2022-12-28T13:51:31.688Z,99611.97
2022-12-28T13:53:34.016Z,99611.72
2022-12-28T13:54:51.787Z,99614.63
2022-12-28T13:56:29.372Z,99623.34
2022-12-28T13:57:59.709Z,99605.06
2022-12-28T13:59:19.037Z,99606.09
2022-12-28T14:00:43.317Z,99599.97
2022-12-28T14:02:00.088Z,99600.00
2022-12-28T14:03:13.266Z,99593.81
2022-12-28T14:06:06.059Z,99594.66
2022-12-28T14:07:33.545Z,99589.44
2022-12-28T14:08:55.426Z,99589.44
2022-12-28T14:10:06.076Z,99589.72
2022-12-28T14:11:19.831Z,99581.78
2022-12-28T14:12:39.768Z,99585.34
2022-12-28T14:13:46.578Z,99586.97
2022-12-28T14:15:03.639Z,99582.28
2022-12-28T14:16:14.765Z,99589.38
2022-12-28T14:17:26.203Z,99592.06
2022-12-28T14:18:42.106Z,99591.31
2022-12-28T14:19:49.391Z,99592.06
2022-12-28T14:21:00.823Z,99584.06
2022-12-28T14:22:35.271Z,99586.63
2022-12-28T14:23:46.170Z,99587.81
2022-12-28T14:25:13.628Z,99588.84
2022-12-28T14:26:31.434Z,99583.81
2022-12-28T14:27:58.769Z,99591.59
2022-12-28T14:29:11.453Z,99591.84
2022-12-28T14:30:54.313Z,99593.03
2022-12-28T14:32:24.516Z,99599.50
2022-12-28T14:33:39.485Z,99590.97
2022-12-28T14:34:55.727Z,99602.66
2022-12-28T14:36:06.999Z,99593.84
2022-12-28T14:37:40.613Z,99602.66
2022-12-28T14:39:02.733Z,99599.16
2022-12-28T14:40:37.669Z,99590.66
2022-12-28T14:41:46.936Z,99605.00
2022-12-28T14:42:53.861Z,99601.41
2022-12-28T14:44:08.590Z,99598.81
2022-12-28T14:47:44.582Z,99599.50
2022-12-28T14:48:50.787Z,99596.94
2022-12-28T14:50:21.362Z,99598.81
2022-12-28T14:51:35.165Z,99596.16
2022-12-28T14:52:51.039Z,99598.75
2022-12-28T14:54:21.825Z,99595.38
2022-12-28T14:55:41.879Z,99603.41
2022-12-28T14:57:17.586Z,99595.72
2022-12-28T14:59:02.800Z,99598.63
2022-12-28T15:00:16.103Z,99606.84
2022-12-28T15:00:35.255Z,99600.47
2022-12-28T15:01:49.072Z,99597.72
2022-12-28T15:02:55.463Z,99600.06
2022-12-28T15:04:05.446Z,99598.44
2022-12-28T15:05:38.702Z,99602.78
2022-12-28T15:06:54.532Z,99592.44
2022-12-28T15:08:01.096Z,99587.00
2022-12-28T15:15:33.415Z,99589.34
2022-12-28T15:16:38.833Z,99592.94
2022-12-28T15:17:42.304Z,99592.00
2022-12-28T15:18:46.655Z,99595.75
2022-12-28T15:19:50.236Z,99593.97
2022-12-28T15:20:56.040Z,99594.81
2022-12-28T15:22:00.376Z,99596.34
2022-12-28T15:23:05.804Z,99597.28
2022-12-28T15:24:23.641Z,99595.44
2022-12-28T15:25:29.254Z,99596.50
2022-12-28T15:27:02.656Z,99590.56
2022-12-28T15:30:06.593Z,99588.13
2022-12-28T15:31:48.174Z,99591.53
2022-12-28T15:32:56.042Z,99600.00
2022-12-28T15:34:00.265Z,99590.38
2022-12-28T15:35:06.080Z,99588.69
2022-12-28T15:36:19.615Z,99584.25
2022-12-28T15:37:50.160Z,99587.06
2022-12-28T15:39:03.364Z,99579.03
2022-12-28T15:40:10.712Z,99574.84
2022-12-28T15:41:52.478Z,99582.84
2022-12-28T15:42:59.638Z,99579.28
2022-12-28T15:44:06.001Z,99577.56
2022-12-28T15:45:11.223Z,99585.31
2022-12-28T15:46:14.738Z,99584.41
2022-12-28T15:47:21.305Z,99585.31
2022-12-28T15:48:31.970Z,99581.81
2022-12-28T15:49:39.723Z,99579.19
2022-12-28T15:50:46.135Z,99576.53
2022-12-28T15:51:54.284Z,99584.66
2022-12-28T15:53:02.862Z,99576.63
2022-12-28T15:54:08.055Z,99580.97
2022-12-28T15:55:19.875Z,99579.28
2022-12-28T15:56:31.747Z,99573.97
2022-12-28T15:57:37.072Z,99575.78
2022-12-28T15:58:48.135Z,99576.72